Time;durP1;ratioP1;P1;durP2;ratioP2;P2;SDS_P1;SDS_P2;PMS_P1;PMS_P2;Temp;Humidity;BMP_temperature;BMP_pressure;BME280_temperature;BME280_humidity;BME280_pressure;Samples;Min_cycle;Max_cycle;Signal;HPM_P1;HPM_P2
2021/09/01 00:00:13;;;;;;;20.20;6.80;;;;;;;14.65;80.31;102620.44;2082805;28;20026;-61
2021/09/01 00:01:14;;;;;;;21.30;8.35;;;;;;;14.64;80.51;102631.00;2082882;28;20101;-61
2021/09/01 00:02:14;;;;;;;17.53;7.23;;;;;;;14.65;80.58;102633.59;2091567;28;20029;-61
2021/09/01 00:03:14;;;;;;;19.83;6.80;;;;;;;14.65;80.58;102628.34;2091688;28;20025;-61
2021/09/01 00:04:14;;;;;;;16.60;5.27;;;;;;;14.64;80.53;102629.25;2091730;28;20013;-61
2021/09/01 00:05:15;;;;;;;22.37;7.97;;;;;;;14.64;80.85;102624.00;2082754;28;20493;-61
2021/09/01 00:06:15;;;;;;;19.33;8.97;;;;;;;14.65;80.66;102630.13;2074560;28;20487;-61
2021/09/01 00:07:16;;;;;;;19.15;7.18;;;;;;;14.65;80.47;102633.59;2082802;28;20017;-61
2021/09/01 00:08:16;;;;;;;14.55;6.30;;;;;;;14.66;80.51;102630.06;2082782;28;20029;-61
2021/09/01 00:09:17;;;;;;;12.85;6.53;;;;;;;14.66;80.45;102631.84;2082789;28;20025;-61
2021/09/01 00:10:18;;;;;;;14.03;6.47;;;;;;;14.66;80.38;102635.31;2090873;28;20033;-62
2021/09/01 00:11:19;;;;;;;;;;;;;;;14.65;80.31;102630.97;2091523;28;20021;-61
2021/09/01 00:12:20;;;;;;;17.83;5.70;;;;;;;14.67;80.65;102637.03;2091625;28;19908;-62
2021/09/01 00:13:20;;;;;;;17.53;6.33;;;;;;;14.67;80.46;102629.16;2091743;28;20025;-60
2021/09/01 00:14:22;;;;;;;16.70;5.97;;;;;;;14.67;80.86;102639.66;2091484;28;20490;-60
2021/09/01 00:15:22;;;;;;;18.52;6.20;;;;;;;14.66;80.75;102637.97;2091638;28;20013;-61
2021/09/01 00:16:26;;;;;;;18.37;5.73;;;;;;;14.65;80.51;102632.75;2091561;28;20072;-60
2021/09/01 00:17:26;;;;;;;18.20;6.07;;;;;;;14.65;80.76;102638.84;2091627;28;20544;-61
2021/09/01 00:18:26;;;;;;;17.10;5.88;;;;;;;14.67;80.39;102637.03;2091612;28;20067;-61
2021/09/01 00:19:27;;;;;;;15.93;6.37;;;;;;;14.66;80.41;102635.31;2091609;28;20025;-60
2021/09/01 00:20:27;;;;;;;13.30;5.17;;;;;;;14.66;80.62;102626.56;2082676;28;20024;-61
2021/09/01 00:21:28;;;;;;;18.90;7.07;;;;;;;14.66;80.51;102637.09;2082708;28;20039;-62
2021/09/01 00:22:28;;;;;;;23.20;8.60;;;;;;;14.65;80.56;102638.84;2091394;28;20033;-62
2021/09/01 00:23:28;;;;;;;13.57;5.93;;;;;;;14.64;80.69;102629.25;2091499;28;20385;-61
2021/09/01 00:24:29;;;;;;;15.83;5.83;;;;;;;14.65;80.82;102632.75;2091554;28;20147;-61
2021/09/01 00:25:29;;;;;;;18.63;6.57;;;;;;;14.64;80.58;102639.75;2091585;28;20028;-61
2021/09/01 00:26:30;;;;;;;18.23;5.80;;;;;;;14.63;80.88;102638.03;2091441;28;20082;-61
2021/09/01 00:27:30;;;;;;;11.35;6.05;;;;;;;14.63;80.77;102640.69;2091501;28;20489;-61
2021/09/01 00:28:30;;;;;;;20.20;6.17;;;;;;;14.62;80.66;102643.34;2091518;28;20033;-61
2021/09/01 00:29:31;;;;;;;16.93;6.17;;;;;;;14.61;81.16;102631.97;2091519;28;20037;-61
2021/09/01 00:30:31;;;;;;;15.47;6.07;;;;;;;14.60;80.97;102630.25;2091575;28;20037;-61
2021/09/01 00:31:31;;;;;;;18.70;6.13;;;;;;;14.61;81.44;102631.97;2091539;28;20037;-61
2021/09/01 00:32:32;;;;;;;18.57;4.90;;;;;;;14.62;81.38;102635.47;2090844;28;20275;-60
2021/09/01 00:33:32;;;;;;;18.07;5.87;;;;;;;14.61;81.61;102628.50;2082528;28;20022;-61
2021/09/01 00:34:32;;;;;;;13.67;6.10;;;;;;;14.61;81.40;102631.97;2074428;28;20745;-62
2021/09/01 00:35:32;;;;;;;22.73;5.97;;;;;;;14.60;81.57;102622.38;2082537;28;20029;-61
2021/09/01 00:36:33;;;;;;;19.20;5.90;;;;;;;14.59;81.46;102623.28;2091383;28;20433;-61
2021/09/01 00:37:33;;;;;;;23.10;6.27;;;;;;;14.59;81.42;102625.91;2090772;28;20025;-60
2021/09/01 00:38:34;;;;;;;13.70;5.20;;;;;;;14.59;81.84;102623.28;2090791;28;20029;-62
2021/09/01 00:39:34;;;;;;;14.57;6.90;;;;;;;14.59;81.85;102618.03;2091424;28;20450;-61
2021/09/01 00:40:35;;;;;;;23.95;6.25;;;;;;;14.59;81.61;102628.53;2091417;28;20033;-61
2021/09/01 00:41:35;;;;;;;14.73;5.53;;;;;;;14.59;81.41;102631.16;2091467;28;20021;-62
2021/09/01 00:42:37;;;;;;;15.80;5.33;;;;;;;14.60;81.43;102630.25;2091314;28;20021;-60
2021/09/01 00:43:37;;;;;;;15.40;6.03;;;;;;;14.60;81.57;102630.25;2091395;28;20021;-61
2021/09/01 00:44:37;;;;;;;14.80;6.50;;;;;;;14.61;81.64;102631.97;2091362;28;20079;-61
2021/09/01 00:45:46;;;;;;;21.63;6.00;;;;;;;14.60;81.59;102630.25;2091370;28;20082;-61
2021/09/01 00:46:47;;;;;;;16.85;5.32;;;;;;;14.59;81.57;102628.53;2091337;28;20394;-61
2021/09/01 00:47:47;;;;;;;;;;;;;;;14.60;81.44;102629.38;2091775;28;20040;-60
2021/09/01 00:48:50;;;;;;;16.20;6.03;;;;;;;14.60;81.73;102625.00;2082461;28;20401;-61
2021/09/01 00:49:51;;;;;;;14.00;6.32;;;;;;;14.61;81.86;102631.97;2082763;28;20029;-61
2021/09/01 00:50:56;;;;;;;19.75;7.32;;;;;;;14.60;81.91;102629.38;2091286;28;20390;-61
2021/09/01 00:51:57;;;;;;;16.88;6.22;;;;;;;14.59;81.74;102623.28;2091283;28;20112;-61
2021/09/01 00:52:57;;;;;;;17.10;6.00;;;;;;;14.58;81.43;102629.47;2091269;28;20485;-61
2021/09/01 00:53:59;;;;;;;15.93;7.37;;;;;;;14.59;81.49;102630.28;2091318;28;20029;-60
2021/09/01 00:54:59;;;;;;;;;;;;;;;14.59;81.49;102625.91;2091839;28;20060;-60
2021/09/01 00:56:00;;;;;;;15.30;6.83;;;;;;;14.59;81.67;102628.53;2091346;28;19913;-61
2021/09/01 00:57:03;;;;;;;19.80;5.22;;;;;;;14.59;81.63;102628.53;2091251;28;20029;-62
2021/09/01 00:58:03;;;;;;;17.55;5.40;;;;;;;14.59;81.71;102625.03;2082393;28;20074;-62
2021/09/01 00:59:03;;;;;;;17.33;6.67;;;;;;;14.60;81.44;102634.63;2082463;28;20029;-61
2021/09/01 01:00:05;;;;;;;14.38;4.75;;;;;;;14.59;81.54;102628.53;2091252;28;20036;-60
2021/09/01 01:02:07;;;;;;;20.17;7.45;;;;;;;14.61;81.67;102637.22;2091006;28;20067;-61
2021/09/01 01:03:07;;;;;;;13.68;6.88;;;;;;;14.61;81.57;102637.22;2090597;28;20418;-61
2021/09/01 01:04:08;;;;;;;16.83;6.27;;;;;;;14.61;81.78;102625.88;2090628;28;20036;-61
2021/09/01 01:05:09;;;;;;;21.90;8.25;;;;;;;14.61;81.57;102631.97;2091068;28;20151;-61
2021/09/01 01:06:10;;;;;;;15.98;5.97;;;;;;;14.59;81.86;102632.91;2091177;28;20071;-60
2021/09/01 01:07:10;;;;;;;12.80;5.93;;;;;;;14.56;82.14;102626.00;2091283;28;20075;-61
2021/09/01 01:08:11;;;;;;;12.02;5.60;;;;;;;14.53;82.50;102628.72;2090147;28;20045;-61
2021/09/01 01:09:12;;;;;;;16.48;5.65;;;;;;;14.53;82.22;102626.09;2091138;28;20033;-60
2021/09/01 01:10:12;;;;;;;12.73;6.05;;;;;;;14.51;82.54;102627.91;2091182;28;20029;-61
2021/09/01 01:11:13;;;;;;;17.00;5.50;;;;;;;14.52;82.29;102627.00;2091151;28;20017;-60
2021/09/01 01:12:21;;;;;;;16.83;5.70;;;;;;;14.53;82.38;102628.72;2091146;28;20055;-60
2021/09/01 01:13:21;;;;;;;12.27;5.13;;;;;;;14.52;82.52;102625.25;2091127;28;20017;-61
2021/09/01 01:14:22;;;;;;;17.07;6.60;;;;;;;14.53;82.36;102626.09;2091013;28;20029;-60
2021/09/01 01:15:22;;;;;;;23.73;7.07;;;;;;;14.53;82.64;102626.97;2091174;28;20555;-60
2021/09/01 01:16:23;;;;;;;15.70;6.43;;;;;;;14.53;82.53;102623.47;2091045;28;20483;-60
2021/09/01 01:17:23;;;;;;;18.50;6.47;;;;;;;14.53;82.64;102619.09;2091122;28;20383;-61
2021/09/01 01:18:24;;;;;;;15.10;6.23;;;;;;;14.54;82.27;102614.66;2091135;28;20017;-61
2021/09/01 01:19:25;;;;;;;19.08;6.72;;;;;;;14.54;82.54;102622.56;2091226;28;20045;-61
2021/09/01 01:20:25;;;;;;;16.83;6.37;;;;;;;14.54;82.30;102622.56;2082219;28;20509;-61
2021/09/01 01:21:29;;;;;;;17.27;5.77;;;;;;;14.53;82.37;102623.47;2082223;28;20523;-61
2021/09/01 01:22:29;;;;;;;20.23;7.20;;;;;;;14.53;82.38;102629.59;2090953;28;20029;-61
2021/09/01 01:23:29;;;;;;;18.90;6.63;;;;;;;14.54;82.24;102625.19;2090368;28;20483;-61
2021/09/01 01:24:50;;;;;;;14.17;7.60;;;;;;;14.53;82.63;102626.09;2090446;28;20409;-61
2021/09/01 01:25:51;;;;;;;15.50;6.30;;;;;;;14.53;82.25;102629.59;2091026;28;20029;-61
2021/09/01 01:26:51;;;;;;;16.58;7.22;;;;;;;14.53;82.55;102628.72;2091012;28;20064;-61
2021/09/01 01:27:51;;;;;;;17.37;7.20;;;;;;;14.54;82.38;102631.31;2091134;28;20067;-61
2021/09/01 01:28:58;;;;;;;19.63;6.33;;;;;;;14.55;82.45;102632.16;2091023;28;20103;-61
2021/09/01 01:30:18;;;;;;;16.70;6.32;;;;;;;14.56;82.37;102628.63;2090849;28;20029;-60
2021/09/01 01:31:18;;;;;;;17.50;6.05;;;;;;;14.57;82.06;102624.25;2091058;28;20060;-61
2021/09/01 01:32:18;;;;;;;10.50;5.20;;;;;;;14.57;82.17;102625.09;2091037;28;20021;-60
2021/09/01 01:33:19;;;;;;;19.57;7.83;;;;;;;14.56;82.10;102628.63;2090951;28;20029;-60
2021/09/01 01:34:19;;;;;;;16.63;6.23;;;;;;;14.57;82.38;102630.34;2090955;28;20322;-61
2021/09/01 01:35:41;;;;;;;13.60;5.93;;;;;;;14.54;82.67;102630.44;2091001;28;20064;-61
2021/09/01 01:36:41;;;;;;;20.23;6.63;;;;;;;14.54;82.66;102636.56;2091006;28;20021;-61
2021/09/01 01:37:41;;;;;;;17.50;6.00;;;;;;;14.54;82.54;102635.69;2090988;28;20021;-61
2021/09/01 01:38:42;;;;;;;19.97;6.20;;;;;;;14.51;82.64;102626.13;2090968;28;20017;-61
2021/09/01 01:39:42;;;;;;;14.88;7.28;;;;;;;14.52;83.01;102632.25;2091044;28;20033;-61
2021/09/01 01:40:44;;;;;;;14.03;6.60;;;;;;;14.51;82.90;102635.81;2090289;28;20123;-61
2021/09/01 01:41:44;;;;;;;17.33;6.75;;;;;;;14.50;82.95;102629.69;2090063;28;20102;-60
2021/09/01 01:42:44;;;;;;;15.10;5.63;;;;;;;14.51;83.08;102641.06;2082058;28;20148;-61
2021/09/01 01:43:46;;;;;;;18.33;5.93;;;;;;;14.49;82.90;102635.84;2090915;28;20505;-61
2021/09/01 01:44:46;;;;;;;17.02;6.45;;;;;;;14.50;83.17;102628.81;2090901;28;20021;-61
2021/09/01 01:45:47;;;;;;;17.53;6.90;;;;;;;14.50;83.38;102640.19;2090937;28;20020;-61
2021/09/01 01:46:47;;;;;;;13.87;6.70;;;;;;;14.50;83.15;102628.81;2090957;28;20025;-61
2021/09/01 01:47:48;;;;;;;19.93;6.73;;;;;;;14.50;83.16;102634.94;2090900;28;20032;-61
2021/09/01 01:48:49;;;;;;;25.02;7.38;;;;;;;14.50;83.14;102634.06;2090976;28;20457;-60
2021/09/01 01:49:49;;;;;;;19.15;6.28;;;;;;;14.48;83.23;102636.75;2082011;28;20029;-61
2021/09/01 01:50:50;;;;;;;18.93;6.10;;;;;;;14.49;83.30;102632.34;2081873;28;20018;-60
2021/09/01 01:51:50;;;;;;;16.13;6.33;;;;;;;14.50;83.00;102634.94;2090845;28;20437;-61
2021/09/01 01:52:51;;;;;;;15.32;6.85;;;;;;;14.52;83.03;102633.13;2090914;28;20021;-61
2021/09/01 01:53:51;;;;;;;17.90;7.00;;;;;;;14.53;82.95;102637.47;2090765;28;20037;-60
2021/09/01 01:54:51;;;;;;;15.70;7.63;;;;;;;14.53;83.54;102639.22;2090954;28;20086;-61
2021/09/01 01:55:51;;;;;;;20.17;6.60;;;;;;;14.52;82.90;102638.38;2090869;28;20033;-61
2021/09/01 01:56:52;;;;;;;21.07;6.80;;;;;;;14.52;83.24;102634.88;2090855;28;20063;-61
2021/09/01 01:57:52;;;;;;;22.83;7.57;;;;;;;14.52;83.03;102637.50;2090834;28;20108;-61
2021/09/01 01:58:52;;;;;;;17.25;5.57;;;;;;;14.53;82.92;102633.97;2090820;28;20466;-64
2021/09/01 01:59:53;;;;;;;24.13;5.87;;;;;;;14.53;82.97;102631.34;2090781;28;20020;-61
2021/09/01 02:00:53;;;;;;;15.97;5.33;;;;;;;14.51;83.24;102633.19;2090819;28;20032;-60
2021/09/01 02:01:53;;;;;;;22.50;6.20;;;;;;;14.52;82.91;102634.88;2090805;28;20083;-60
2021/09/01 02:02:53;;;;;;;18.37;6.27;;;;;;;14.50;83.00;102629.69;2090621;28;20497;-60
2021/09/01 02:03:54;;;;;;;21.45;6.82;;;;;;;14.51;83.27;102635.81;2090820;28;20111;-61
2021/09/01 02:04:54;;;;;;;19.57;6.10;;;;;;;14.52;83.20;102637.50;2090804;28;20020;-61
2021/09/01 02:05:54;;;;;;;16.38;6.13;;;;;;;14.50;83.20;102634.06;2090743;28;20040;-61
2021/09/01 02:06:55;;;;;;;16.03;6.00;;;;;;;14.50;83.26;102639.31;2090059;28;20025;-61
2021/09/01 02:07:55;;;;;;;12.93;5.87;;;;;;;14.51;83.21;102638.44;2090171;28;20060;-60
2021/09/01 02:08:55;;;;;;;11.97;6.70;;;;;;;14.51;83.32;102641.91;2090721;28;20021;-60
2021/09/01 02:09:56;;;;;;;23.07;6.37;;;;;;;14.53;83.40;102644.47;2090066;28;20154;-60
2021/09/01 02:10:56;;;;;;;14.98;6.72;;;;;;;14.52;83.12;102642.78;2090128;28;20055;-61
2021/09/01 02:11:56;;;;;;;16.70;5.80;;;;;;;14.51;83.27;102641.91;2090643;28;20517;-61
2021/09/01 02:12:57;;;;;;;23.45;7.32;;;;;;;14.51;83.53;102635.81;2090681;28;20429;-61
2021/09/01 02:13:57;;;;;;;23.27;6.57;;;;;;;14.50;83.40;102640.19;2090665;28;20108;-60
2021/09/01 02:15:01;;;;;;;20.37;7.30;;;;;;;14.49;83.68;102648.09;2090589;28;20509;-60
2021/09/01 02:16:02;;;;;;;20.98;6.18;;;;;;;14.48;83.44;102643.78;2089830;28;20036;-61
2021/09/01 02:17:02;;;;;;;21.93;6.40;;;;;;;14.50;83.72;102639.31;2090162;28;20032;-60
2021/09/01 02:18:03;;;;;;;17.55;6.90;;;;;;;14.50;83.61;102639.31;2090626;28;20115;-61
2021/09/01 02:19:03;;;;;;;17.02;6.55;;;;;;;14.49;83.66;102642.84;2090489;28;20025;-62
2021/09/01 02:20:05;;;;;;;;;;;;;;;14.49;83.60;102638.47;2090903;28;20414;-62
2021/09/01 02:21:05;;;;;;;20.40;6.67;;;;;;;14.49;83.50;102632.34;2090592;28;19944;-60
2021/09/01 02:22:06;;;;;;;21.07;7.63;;;;;;;14.49;83.91;102632.34;2090517;28;20386;-61
2021/09/01 02:23:06;;;;;;;17.88;6.72;;;;;;;14.48;83.63;102636.75;2090642;28;20025;-61
2021/09/01 02:24:07;;;;;;;16.10;6.23;;;;;;;14.48;84.08;102641.16;2090601;28;20162;-61
2021/09/01 02:25:08;;;;;;;13.82;6.00;;;;;;;14.46;84.08;102643.81;2090733;28;20021;-61
2021/09/01 02:26:09;;;;;;;19.10;6.97;;;;;;;14.47;84.27;102636.81;2090574;28;20471;-61
2021/09/01 02:27:09;;;;;;;13.07;6.10;;;;;;;14.47;84.03;102628.91;2090547;28;20134;-60
2021/09/01 02:28:09;;;;;;;15.85;7.63;;;;;;;14.46;84.17;102633.31;2089984;28;20013;-61
2021/09/01 02:29:10;;;;;;;21.80;7.60;;;;;;;14.47;84.12;102634.19;2090016;28;20143;-60
2021/09/01 02:30:12;;;;;;;15.63;7.80;;;;;;;14.49;84.13;102637.59;2090504;28;20021;-61
2021/09/01 02:31:12;;;;;;;18.65;6.38;;;;;;;14.49;84.00;102637.59;2090482;28;20100;-61
2021/09/01 02:32:12;;;;;;;19.13;6.53;;;;;;;14.48;84.11;102635.88;2090493;28;20020;-61
2021/09/01 02:33:13;;;;;;;23.13;6.73;;;;;;;14.47;84.26;102631.56;2090521;28;20417;-61
2021/09/01 02:34:13;;;;;;;14.20;7.70;;;;;;;14.47;84.52;102631.56;2090474;28;20017;-61
2021/09/01 02:35:13;;;;;;;19.63;7.35;;;;;;;14.47;84.12;102634.19;2089817;28;20113;-62
2021/09/01 02:36:13;;;;;;;12.70;6.57;;;;;;;14.46;84.22;102629.81;2089914;28;20025;-61
2021/09/01 02:37:14;;;;;;;19.17;6.90;;;;;;;14.46;84.37;102632.44;2090585;28;20013;-62
2021/09/01 02:38:14;;;;;;;20.20;6.97;;;;;;;14.47;84.12;102639.44;2081544;28;20055;-61
2021/09/01 02:39:15;;;;;;;16.10;5.87;;;;;;;14.48;83.92;102635.88;2081524;28;20463;-61
2021/09/01 02:40:15;;;;;;;20.07;6.83;;;;;;;14.47;84.13;102642.06;2090509;28;20027;-60
2021/09/01 02:41:15;;;;;;;22.30;7.47;;;;;;;14.47;83.82;102639.44;2090498;28;20337;-60
2021/09/01 02:42:16;;;;;;;14.80;7.33;;;;;;;14.46;84.15;102643.81;2090442;28;20101;-61
2021/09/01 02:43:16;;;;;;;21.15;7.30;;;;;;;14.46;83.72;102633.31;2090519;28;20021;-61
2021/09/01 02:44:16;;;;;;;20.50;9.37;;;;;;;14.45;84.24;102630.72;2090373;28;20486;-60
2021/09/01 02:45:17;;;;;;;16.40;6.88;;;;;;;14.46;84.26;102632.44;2090440;28;20092;-60
2021/09/01 02:46:19;;;;;;;21.02;6.63;;;;;;;14.45;84.05;102630.72;2090442;28;20031;-60
2021/09/01 02:47:19;;;;;;;16.25;6.65;;;;;;;14.45;84.29;102641.22;2090430;28;20017;-61
2021/09/01 02:48:19;;;;;;;23.57;7.30;;;;;;;14.44;84.01;102639.53;2081513;28;20021;-61
2021/09/01 02:49:19;;;;;;;21.87;6.80;;;;;;;14.43;84.48;102638.66;2081590;28;20495;-61
2021/09/01 02:50:20;;;;;;;14.20;7.27;;;;;;;14.42;84.39;102626.44;2090404;28;20053;-61
2021/09/01 02:51:20;;;;;;;14.60;6.43;;;;;;;14.41;84.03;102636.06;2090294;28;20050;-60
2021/09/01 02:52:20;;;;;;;17.80;7.87;;;;;;;14.42;84.36;102631.69;2090370;28;20039;-60
2021/09/01 02:53:21;;;;;;;12.97;5.77;;;;;;;14.41;84.37;102630.81;2090409;28;20028;-61
2021/09/01 02:54:21;;;;;;;19.17;7.28;;;;;;;14.41;84.43;102628.19;2090339;28;20108;-60
2021/09/01 02:55:22;;;;;;;20.30;6.77;;;;;;;14.42;84.35;102631.69;2090360;28;20021;-60
2021/09/01 02:56:22;;;;;;;20.40;7.80;;;;;;;14.42;84.46;102632.56;2090342;28;20544;-60
2021/09/01 02:57:22;;;;;;;21.90;7.47;;;;;;;14.44;84.56;102631.63;2081411;28;20411;-61
2021/09/01 02:58:22;;;;;;;16.23;6.57;;;;;;;14.45;84.22;102635.97;2081541;28;20022;-60
2021/09/01 02:59:23;;;;;;;22.93;6.93;;;;;;;14.46;84.19;102642.94;2090286;28;20047;-62
2021/09/01 03:00:23;;;;;;;15.50;6.30;;;;;;;14.45;83.96;102636.84;2090335;28;20047;-60
2021/09/01 03:01:23;;;;;;;18.40;7.00;;;;;;;14.46;83.98;102633.31;2090377;28;20053;-61
2021/09/01 03:02:24;;;;;;;21.30;6.75;;;;;;;14.46;84.11;102640.31;2090186;28;20029;-61
2021/09/01 03:03:24;;;;;;;18.10;7.37;;;;;;;14.46;83.99;102632.44;2090241;28;20028;-61
2021/09/01 03:04:24;;;;;;;16.50;6.83;;;;;;;14.44;84.54;102629.84;2090317;28;20078;-61
2021/09/01 03:05:24;;;;;;;24.80;8.53;;;;;;;14.45;84.15;102630.72;2090280;28;20021;-61
2021/09/01 03:06:25;;;;;;;18.43;6.93;;;;;;;14.45;84.31;102630.72;2090310;28;20493;-61
2021/09/01 03:07:25;;;;;;;15.80;6.80;;;;;;;14.44;84.29;102631.63;2090317;28;20279;-59
2021/09/01 03:08:25;;;;;;;18.27;6.23;;;;;;;14.43;84.54;102628.13;2081306;28;20393;-62
2021/09/01 03:09:25;;;;;;;19.73;7.13;;;;;;;14.41;84.99;102630.81;2081391;28;20104;-60
2021/09/01 03:10:26;;;;;;;16.97;7.43;;;;;;;14.37;85.34;102631.81;2090245;28;20028;-60
2021/09/01 03:11:26;;;;;;;25.70;7.50;;;;;;;14.36;85.34;102635.34;2089582;28;20020;-61
2021/09/01 03:12:27;;;;;;;20.58;6.75;;;;;;;14.34;84.97;102626.63;2089610;28;20020;-63
2021/09/01 03:13:27;;;;;;;21.17;7.30;;;;;;;14.34;85.21;102631.91;2090286;28;20055;-61
2021/09/01 03:14:27;;;;;;;14.67;6.63;;;;;;;14.34;84.73;102628.44;2090196;28;20068;-61
2021/09/01 03:15:28;;;;;;;19.17;7.57;;;;;;;14.35;85.08;102624.88;2090129;28;20766;-61
2021/09/01 03:16:28;;;;;;;23.07;8.13;;;;;;;14.34;84.85;102631.91;2090106;28;20044;-62
2021/09/01 03:17:28;;;;;;;18.10;6.80;;;;;;;14.35;84.93;102625.75;2090186;28;20536;-62
2021/09/01 03:18:28;;;;;;;13.03;6.53;;;;;;;14.34;84.84;102631.91;2081333;28;20087;-61
2021/09/01 03:19:29;;;;;;;21.47;7.93;;;;;;;14.36;85.13;102632.72;2081410;28;20125;-61
2021/09/01 03:20:29;;;;;;;13.10;6.27;;;;;;;14.35;85.01;102631.00;2090260;28;20155;-62
2021/09/01 03:21:30;;;;;;;17.00;8.45;;;;;;;14.35;84.63;102625.75;2090161;28;20029;-61
2021/09/01 03:22:30;;;;;;;15.83;7.27;;;;;;;14.35;84.83;102631.00;2090088;28;20033;-60
2021/09/01 03:23:30;;;;;;;15.65;6.93;;;;;;;14.35;85.29;102631.00;2090194;28;20444;-61
2021/09/01 03:24:30;;;;;;;16.83;7.87;;;;;;;14.34;85.00;102629.25;2090153;28;20074;-61
2021/09/01 03:25:31;;;;;;;14.90;7.47;;;;;;;14.34;85.04;102633.69;2090162;28;20111;-61
2021/09/01 03:26:32;;;;;;;18.02;7.82;;;;;;;14.33;85.22;102631.97;2090216;28;20110;-62
2021/09/01 03:27:32;;;;;;;12.68;7.32;;;;;;;14.31;85.33;102632.00;2090063;28;20024;-62
2021/09/01 03:28:33;;;;;;;24.47;8.13;;;;;;;14.30;85.73;102627.63;2090194;28;20025;-61
2021/09/01 03:29:33;;;;;;;14.70;7.50;;;;;;;14.29;85.52;102628.56;2090160;28;20108;-61
2021/09/01 03:30:33;;;;;;;18.23;7.97;;;;;;;14.27;85.88;102630.38;2090161;28;20033;-62
2021/09/01 03:31:34;;;;;;;16.27;6.80;;;;;;;14.27;85.74;102628.59;2089552;28;20082;-61
2021/09/01 03:32:34;;;;;;;13.77;7.50;;;;;;;14.27;85.73;102633.84;2090224;28;20483;-62
2021/09/01 03:33:34;;;;;;;29.70;7.50;;;;;;;14.28;85.97;102634.72;2090148;28;20031;-61
2021/09/01 03:34:34;;;;;;;14.90;6.27;;;;;;;14.25;86.05;102627.81;2090179;28;20117;-61
2021/09/01 03:35:35;;;;;;;16.13;7.17;;;;;;;14.25;85.83;102627.81;2090153;28;20104;-61
2021/09/01 03:36:35;;;;;;;16.83;7.50;;;;;;;14.25;85.83;102632.19;2090069;28;20103;-61
2021/09/01 03:37:36;;;;;;;17.73;7.57;;;;;;;14.24;85.61;102635.72;2090173;28;20074;-60
2021/09/01 03:38:36;;;;;;;16.33;6.75;;;;;;;14.25;85.85;102626.94;2090092;28;20033;-61
2021/09/01 03:39:36;;;;;;;22.13;7.60;;;;;;;14.26;85.89;102633.88;2090027;28;20028;-61
2021/09/01 03:40:37;;;;;;;18.07;7.33;;;;;;;14.26;85.57;102632.13;2090160;28;20031;-60
2021/09/01 03:41:37;;;;;;;15.67;7.27;;;;;;;14.27;85.85;102638.25;2090149;28;20036;-60
2021/09/01 03:42:37;;;;;;;17.13;6.50;;;;;;;14.27;85.82;102644.34;2090003;28;20021;-61
2021/09/01 03:43:38;;;;;;;18.60;7.30;;;;;;;14.27;85.77;102638.25;2090159;28;20024;-61
2021/09/01 03:44:38;;;;;;;15.80;6.17;;;;;;;14.26;85.54;102637.38;2081071;28;20410;-61
2021/09/01 03:45:38;;;;;;;21.03;7.40;;;;;;;14.26;85.90;102640.00;2081392;28;20041;-61
2021/09/01 03:46:39;;;;;;;17.63;6.75;;;;;;;14.25;85.77;102643.56;2090029;28;20492;-61
2021/09/01 03:47:39;;;;;;;20.43;8.50;;;;;;;14.25;85.60;102640.06;2090045;28;20029;-62
2021/09/01 03:48:40;;;;;;;18.15;7.03;;;;;;;14.24;86.02;102638.34;2090057;28;20056;-60
2021/09/01 03:49:40;;;;;;;18.90;7.10;;;;;;;14.24;85.95;102640.97;2090153;28;20028;-61
2021/09/01 03:50:41;;;;;;;20.50;9.45;;;;;;;14.23;86.04;102642.72;2090033;28;20032;-61
2021/09/01 03:51:41;;;;;;;20.50;8.37;;;;;;;14.23;85.88;102647.13;2090018;28;20516;-61
2021/09/01 03:52:41;;;;;;;21.33;8.60;;;;;;;14.22;85.99;102645.38;2089423;28;20389;-60
2021/09/01 03:53:41;;;;;;;21.53;8.27;;;;;;;14.22;85.78;102645.38;2089415;28;20462;-61
2021/09/01 03:54:41;;;;;;;16.80;8.87;;;;;;;14.21;85.75;102639.31;2081255;28;20029;-61
2021/09/01 03:55:42;;;;;;;16.70;7.97;;;;;;;14.20;85.73;102644.59;2089968;28;20021;-60
2021/09/01 03:56:42;;;;;;;24.05;8.00;;;;;;;14.19;85.77;102645.50;2090039;28;20063;-61
2021/09/01 03:57:43;;;;;;;20.33;8.13;;;;;;;14.16;85.67;102647.31;2090025;28;20025;-59
2021/09/01 03:58:43;;;;;;;19.40;7.55;;;;;;;14.15;85.58;102645.59;2090065;28;20059;-61
2021/09/01 03:59:43;;;;;;;23.97;7.80;;;;;;;14.13;85.50;102643.91;2090106;28;20159;-60
2021/09/01 04:00:44;;;;;;;14.67;6.83;;;;;;;14.11;85.75;102643.97;2090030;28;20040;-61
2021/09/01 04:01:44;;;;;;;18.83;7.57;;;;;;;14.11;85.77;102649.22;2090102;28;20025;-60
2021/09/01 04:02:44;;;;;;;18.30;7.53;;;;;;;14.10;85.76;102646.63;2090041;28;20025;-61
2021/09/01 04:03:44;;;;;;;24.43;8.90;;;;;;;14.10;85.73;102644.84;2089261;28;20021;-60
2021/09/01 04:04:45;;;;;;;18.80;7.73;;;;;;;14.09;85.72;102645.75;2089425;28;20082;-61
2021/09/01 04:05:45;;;;;;;24.50;8.68;;;;;;;14.08;85.81;102644.03;2089986;28;20024;-61
2021/09/01 04:06:45;;;;;;;19.17;8.03;;;;;;;14.07;86.05;102642.31;2089392;28;20036;-60
2021/09/01 04:07:45;;;;;;;16.83;7.33;;;;;;;14.06;85.94;102645.00;2089477;28;20474;-60
2021/09/01 04:08:46;;;;;;;21.47;7.60;;;;;;;14.06;85.83;102643.22;2090122;28;20029;-61
2021/09/01 04:09:46;;;;;;;17.90;8.07;;;;;;;14.06;85.85;102645.84;2089328;28;20124;-61
2021/09/01 04:10:46;;;;;;;17.80;8.53;;;;;;;14.08;86.19;102649.28;2081137;28;20036;-61
2021/09/01 04:11:46;;;;;;;17.60;9.10;;;;;;;14.09;85.89;102645.75;2073014;28;20033;-60
2021/09/01 04:12:47;;;;;;;17.53;8.50;;;;;;;14.09;86.08;102645.75;2081237;28;20756;-60
2021/09/01 04:13:47;;;;;;;20.00;7.87;;;;;;;14.09;86.16;102645.75;2089935;28;20029;-61
2021/09/01 04:14:47;;;;;;;21.90;9.00;;;;;;;14.09;86.09;102643.13;2089963;28;20059;-60
2021/09/01 04:15:47;;;;;;;20.07;8.40;;;;;;;14.09;85.92;102645.75;2089911;28;20480;-60
2021/09/01 04:16:48;;;;;;;21.93;8.90;;;;;;;14.06;86.65;102640.59;2089837;28;20132;-61
2021/09/01 04:17:48;;;;;;;18.23;7.93;;;;;;;14.06;86.40;102647.63;2081064;28;20072;-61
2021/09/01 04:18:48;;;;;;;16.13;7.70;;;;;;;14.06;86.37;102643.22;2081177;28;20032;-60
2021/09/01 04:19:48;;;;;;;24.13;9.07;;;;;;;14.06;86.46;102645.84;2089959;28;20532;-61
2021/09/01 04:20:49;;;;;;;17.60;7.63;;;;;;;14.06;86.53;102640.59;2089950;28;20470;-60
2021/09/01 04:21:49;;;;;;;21.33;9.27;;;;;;;14.06;86.51;102643.22;2089992;28;20025;-61
2021/09/01 04:22:49;;;;;;;17.73;8.00;;;;;;;14.07;86.67;102639.69;2089856;28;20029;-61
2021/09/01 04:23:49;;;;;;;20.23;6.70;;;;;;;14.06;86.53;102640.59;2089917;28;20425;-61
2021/09/01 04:24:50;;;;;;;24.17;7.77;;;;;;;14.06;86.46;102645.84;2089964;28;20108;-61
2021/09/01 04:25:50;;;;;;;18.50;7.90;;;;;;;14.05;86.62;102633.63;2089940;28;20033;-60
2021/09/01 04:26:50;;;;;;;24.40;9.37;;;;;;;14.07;86.77;102639.69;2089965;28;20060;-60
2021/09/01 04:27:51;;;;;;;19.77;7.67;;;;;;;14.06;86.36;102640.59;2080968;28;20478;-60
2021/09/01 04:28:51;;;;;;;21.00;8.30;;;;;;;14.07;86.80;102641.44;2081131;28;20033;-61
2021/09/01 04:29:51;;;;;;;25.57;6.80;;;;;;;14.06;86.68;102645.00;2089963;28;20071;-60
2021/09/01 04:30:51;;;;;;;18.97;7.93;;;;;;;14.05;86.83;102644.13;2089914;28;20036;-62
2021/09/01 04:31:51;;;;;;;20.20;6.83;;;;;;;14.05;86.77;102638.88;2089989;28;20417;-59
2021/09/01 04:32:52;;;;;;;17.50;6.93;;;;;;;14.05;86.82;102638.88;2089864;28;20075;-61
2021/09/01 04:33:52;;;;;;;23.00;8.13;;;;;;;14.05;86.72;102638.88;2089856;28;20028;-61
2021/09/01 04:34:52;;;;;;;17.17;8.47;;;;;;;14.05;86.82;102638.88;2089873;28;20032;-60
2021/09/01 04:35:52;;;;;;;25.07;8.20;;;;;;;14.05;86.82;102641.50;2089965;28;20065;-63
2021/09/01 04:36:53;;;;;;;23.77;8.60;;;;;;;14.05;86.86;102638.88;2089944;28;20039;-64
2021/09/01 04:37:53;;;;;;;18.80;8.40;;;;;;;14.05;86.84;102644.13;2089980;28;20032;-64
2021/09/01 04:38:53;;;;;;;22.60;8.70;;;;;;;14.07;86.91;102644.94;2089247;28;20025;-64
2021/09/01 04:39:53;;;;;;;19.23;7.87;;;;;;;14.08;86.76;102638.78;2089217;28;20497;-64
2021/09/01 04:40:54;;;;;;;21.10;10.07;;;;;;;14.09;86.66;102651.00;2081082;28;20065;-65